Résultats

Montee Ventoux 2017

14.5 Km
02/07/2017 à 09:15:00 - Bedoin ()
282 arrivant(e)s.





Place▲ Temps Dossard Nom Prenom Categ #Categ Sexe #Sexe Club Vit Moy Diplôme Partager
1 01:24:38 298 NAVARRO JULIEN SEM 1 M 1 CAP GARONNE 10.28
2 01:25:52 2 ALLENBACH EMMANUEL M1M 1 M 2 ALSACE NORD ATHETISME (ANA) 10.13
3 01:26:52 1 VICENTE LAURENT SEM 2 M 3 ALES CEVENNES ATHLETISME 10.02
4 01:28:43 5 MORICHAUD GWENAEL M1M 2 M 4 ASVEL VILLEURBANNE 9.81
5 01:29:27 50 WALTMANN VICTOR ESM 1 M 5 ALSACE NORD ATHETISME (ANA) 9.73
6 01:30:20 169 CHATEAU JORIS SEM 3 M 6 9.63
7 01:30:32 293 ROY YOANN SEM 4 M 7 ALES CEVENNES ATHLETISME 9.61
8 01:32:00 4 RAUNER MAXIME SEM 5 M 8 ALSACE NORD ATHETISME (ANA) 9.46
9 01:34:06 250 GENTHON JONATHAN SEM 6 M 9 9.25
10 01:34:40 249 COURIAS GUILLAUME ESM 2 M 10 ESPRIT COURSE 9.19
11 01:35:05 7 CARTAL LAURENT M2M 1 M 11 VELAY ATHLETISME 9.15
12 01:36:52 67 FRANCKE GUILLAUME ESM 3 M 12 TRAIL CLUB DE PROVENCE-COMPRESSPORT FRANCE 8.98
13 01:36:59 170 PILLET EMMANUEL SEM 7 M 13 CAMNV 8.97
14 01:37:20 9 TURLURE MATHIEU SEM 8 M 14 ALSACE NORD ATHETISME (ANA) 8.94
15 01:37:58 199 FREIXINET-ESPINOSA XAVIER SEM 9 M 15 GYMFORLESS 8.88
16 01:38:06 152 CHAPEAU DAVID SEM 10 M 16 MONTPELLIER START RUNNING 8.87
17 01:38:20 10 ITSWEIRE BERTRAND M2M 2 M 17 UNION PERPIGNAN ATHLETISME 66 8.85
18 01:39:14 261 PALUELLO CEDRIC SEM 11 M 18 8.77
19 01:40:26 46 SIAT JULIEN M1M 3 M 19 SUNDGO2 8.66
20 01:40:40 8 LAMOTHE ROBIN SEM 12 M 20 CMI TULLINS 8.64
21 01:42:19 211 BORDET BENJAMIN SEM 13 M 21 GH2A SERRE CHEVALIER 8.50
22 01:43:00 145 BARBERA JEAN-CHRISTOPHE SEM 14 M 22 ENTENTE ATHLETIQUE GRENOBLE 8.45
23 01:43:37 236 SERVIZET DAVID M1M 4 M 23 EA GRENOBLE 38 8.40
24 01:44:16 6 CAVALLO CYRIL M1M 5 M 24 AVIGNON LE PONTET ATHLETISME-S/L US LE PONTET A. 8.34
25 01:44:41 214 GRUX FREDERIC M1M 6 M 25 GH2A 8.31
26 01:45:47 200 BARET MATTHIEU SEM 15 M 26 TRICASTIN TRIATHLON 8.22
27 01:46:26 31 VERTE PATRICK M1M 7 M 27 8.17
28 01:46:32 216 BIGONI MICHEL M2M 3 M 28 GH2A 8.17
29 01:46:41 18 COMBE JULIA SEF 1 F 1 ENTENTE ATHLETIQUE GRENOBLE 38-S/L AL ECHIROLLES 8.15
30 01:47:33 147 HITA JEROME SEM 16 M 29 8.09
31 01:47:58 257 BOCEL MAXIME SEM 17 M 30 8.06
32 01:48:29 126 BILLAUT DAVID M1M 8 M 31 EAG ECHIROLLES 8.02
33 01:49:46 80 MUSSILLON FABIEN SEM 18 M 32 7.93
34 01:50:06 180 ALLARD QUENTIN SEM 19 M 33 WAIMEA TRIATHLON/COURIR A VAUVERT 7.90
35 01:50:25 297 GHANDOURA ANIS M1M 9 M 34 7.88
36 01:50:36 102 CAILLEAU SIMON SEM 20 M 35 7.87
37 01:51:23 213 N:Anonyme 213 P:Anonyme 213 M1M 10 M 36 GH2A 7.81
38 01:51:36 276 CAMPTON PIERRE SEM 21 M 37 NO TEAM TRAIL 7.80
39 01:52:01 112 VILLERMY LIONEL SEM 22 M 38 AVENIR CYCLISTE ROGNONAS 7.77
40 01:52:37 150 BUDELOT YANNICK M1M 11 M 39 AS MONACO ATHLETISME 7.73
41 01:52:44 66 DECIMA ADRIEN SEM 23 M 40 7.72
42 01:53:21 42 COMMERE LAURENT M1M 12 M 41 NOYON COURSE D'ORIENTATION 7.68
43 01:53:24 235 MOREIRA ARNO ESM 4 M 42 TEAM FOULEES AUBAGNE 7.67
44 01:53:31 196 BAFFALIE CHRISTOPHE M2M 4 M 43 COURIR EN UZEGE/POMPIERS SGM 7.66
45 01:53:43 176 HAMEL SERGE M2M 5 M 44 AL ST MARC LE BLANC 7.65
46 01:54:01 220 COLLET AMELIE SEF 2 F 2 GH2A 7.63
47 01:54:13 86 HENRY PATRICK M3M 1 M 45 A SANTAMARIACCIA 7.62
48 01:54:20 218 RAINOUARD ERIC M2M 6 M 46 GH2A 7.61
49 01:54:36 248 COUDERT OLIVIER SEM 24 M 47 EAG 38-S/L AC LA MURE 7.59
50 01:54:46 168 RIVIER AURELIEN M1M 13 M 48 GLOBE TRAILER 7.58
51 01:54:53 149 DI-GUISTO LAURENT SEM 25 M 49 AS MONACO ATHLETISME 7.57
52 01:55:25 43 LEVICQ JEROME M1M 14 M 50 ATHLETIC CLUB SALONAIS 7.54
53 01:55:46 256 ROUSSEAU OLIVIER M2M 7 M 51 CA VEYNES 7.52
54 01:55:55 225 SILLAC ANTOINE M1M 15 M 52 ACEP VALREAS 7.51
55 01:56:07 192 BENDERITTER THOMAS SEM 26 M 53 AC2A 7.49
56 01:56:14 238 PETER AURELIA SEF 3 F 3 EAG 7.48
57 01:56:46 205 VISOMBLAIN AURELIEN SEM 27 M 54 ACEP 7.45
58 01:57:00 207 DOUCE FREDERIC M2M 8 M 55 A.S.L. LA ROBERTSAU 7.44
59 01:57:45 166 CAMPOURCY STEPHANE M1M 16 M 56 COSSLMA 7.39
60 01:57:50 87 JACQUET JULIEN M1M 17 M 57 H2O RUNNING LES ANGLES 7.38
61 01:58:26 263 ROUSTANT CHRISTOPHE M1M 18 M 58 TEAM RAIDLIGHT PROVENCE 7.35
62 01:58:51 301 VAUDREVILLE LAURENT M1M 19 M 59 SCO STE MARGUERITE 7.32
63 01:58:58 155 CARON JEAN-CHRISTOPHE M1M 20 M 60 7.31
64 01:59:35 280 MICHEL DIDIER M1M 21 M 61 7.28
65 01:59:53 116 ROUBERTY STEPHANE M2M 9 M 62 COURIR EN UZEGE 7.26
66 02:00:04 294 DUMAS TONY ESM 5 M 63 ALES CEVENNES ATHLETISME 7.25
67 02:00:37 33 COLLOMP SEBASTIEN SEM 28 M 64 AS CAVAILLON 7.21
68 02:01:01 91 RICHERD CHRISTOPHE M1M 22 M 65 SCAP MONTELIMAR 7.19
69 02:01:06 237 BILLON BETTINA ESF 1 F 4 EAG/AL ECHIROLLES 7.18
70 02:01:14 184 SAF KARIM M1M 23 M 66 7.18
71 02:01:26 161 PEBRE SYLVAIN SEM 29 M 67 COMBES ET CRETES 7.16
72 02:01:31 219 LIEUTAUD PHILIPPE M2M 10 M 68 GH2A 7.16
73 02:01:39 203 DANTIN STEPHANE M1M 24 M 69 7.15
74 02:01:52 172 DOMENECH CARLES SEM 30 M 70 CAMNV ASVEL 7.14
75 02:01:56 247 AROCAS JULIEN SEM 31 M 71 LES SENTIERS DU PATY-TEAM VIVEZ EN RELIEF 7.14
76 02:02:32 309 GALLAND MATHIEU M1M 25 M 72 7.10
77 02:02:55 285 SINE THIBAULT SEM 32 M 73 FC BARBENTANE 7.08
78 02:03:24 284 AMIACH JONATHAN SEM 33 M 74 EAG 7.05
79 02:03:44 181 CHARIOT GUY M1M 26 M 75 SPAC 7.03
80 02:03:49 41 ARHAB HOCINE M3M 2 M 76 7.03
81 02:04:23 57 FADAT CEDRIC M1M 27 M 77 6.99
82 02:04:32 251 MARTIN THIERRY SEM 34 M 78 TEAM TRAIL SPIRIT 6.99
83 02:05:01 61 GRAILLE JEREMIE SEM 35 M 79 ASSP VERGEZE 6.96
84 02:05:07 287 CARRIERE DIDIER M1M 28 M 80 6.95
85 02:05:15 177 ROUX MARIO SEM 36 M 81 COMBES ET CRETES 6.95
86 02:05:55 198 BOTELLA PASCALE M1F 1 F 5 TOULON ETUDIANT CLUB 6.91
87 02:06:07 117 NURY RICHARD M1M 29 M 82 LES SENTIERS DU PATY 6.90
88 02:06:21 148 SIRE DAVID SEM 37 M 83 6.89
89 02:06:26 178 DONAT SEBASTIEN SEM 38 M 84 6.88
90 02:06:32 107 COLIN REMY SEM 39 M 85 6.88
91 02:06:50 19 GYBELS SEBASTIEN SEM 40 M 86 NAC NIVELLES 6.86
92 02:07:10 124 BOUET NATHALIE M1F 2 F 6 VEDAS ENDURANCE 6.84
93 02:07:32 97 COLOMBO MICHEL M3M 3 M 87 AC TASSIN 6.82
94 02:07:57 267 BOURDON PHILIPPE M2M 11 M 88 TEAM COINS SECRETS 6.80
95 02:08:05 110 FEDOTOFF BORIS SEM 41 M 89 6.79
96 02:08:12 182 NICEY AUGUSTIN SEM 42 M 90 6.79
97 02:08:29 32 MARCEL EMILE SEM 43 M 91 6.77
98 02:08:38 194 LAUSSEL JEROME M2M 12 M 92 CAP SAINT GELY 6.76
99 02:08:42 243 FIL NICOLAS SEM 44 M 93 6.76
100 02:08:46 72 SECONDA FRANCK M1M 30 M 94 6.76